createdAt,value
2018-10-18T00:01:12.713Z,55.90
2018-10-18T00:03:41.094Z,64.03
2018-10-18T00:06:09.429Z,63.10
2018-10-18T00:08:37.669Z,60.73
2018-10-18T00:11:06.433Z,56.43
2018-10-18T00:13:35.221Z,55.07
2018-10-18T00:16:03.530Z,55.17
2018-10-18T00:18:31.850Z,54.57
2018-10-18T00:21:00.131Z,53.33
2018-10-18T00:23:28.411Z,55.80
2018-10-18T00:25:57.933Z,54.93
2018-10-18T00:28:26.224Z,59.20
2018-10-18T00:30:54.510Z,56.17
2018-10-18T00:33:22.818Z,56.03
2018-10-18T00:35:51.179Z,59.37
2018-10-18T00:38:19.525Z,55.80
2018-10-18T00:40:47.909Z,56.73
2018-10-18T00:43:16.198Z,57.17
2018-10-18T00:45:44.478Z,53.73
2018-10-18T00:48:12.952Z,60.73
2018-10-18T00:50:43.161Z,62.03
2018-10-18T00:53:11.449Z,59.90
2018-10-18T00:55:39.774Z,61.50
2018-10-18T00:58:08.172Z,65.20
2018-10-18T01:00:37.522Z,62.50
2018-10-18T01:03:06.046Z,63.60
2018-10-18T01:05:34.335Z,64.83
2018-10-18T01:08:02.691Z,65.03
2018-10-18T01:10:31.000Z,61.30
2018-10-18T01:12:59.340Z,59.70
2018-10-18T01:15:27.677Z,57.37
2018-10-18T01:17:55.981Z,79.90
2018-10-18T01:20:24.278Z,92.90
2018-10-18T01:22:52.678Z,107.13
2018-10-18T01:25:21.013Z,102.33
2018-10-18T01:27:49.306Z,94.17
2018-10-18T01:30:17.598Z,114.80
2018-10-18T01:32:45.929Z,147.10
2018-10-18T01:35:14.233Z,145.73
2018-10-18T01:37:42.650Z,133.87
2018-10-18T01:40:10.974Z,124.23
2018-10-18T01:42:39.267Z,106.13
2018-10-18T01:45:08.640Z,89.60
2018-10-18T01:47:37.007Z,75.43
2018-10-18T01:50:06.780Z,71.03
2018-10-18T01:52:35.063Z,69.97
2018-10-18T01:55:03.766Z,63.27
2018-10-18T01:57:32.052Z,63.13
2018-10-18T02:00:01.467Z,59.03
2018-10-18T02:02:29.766Z,59.10
2018-10-18T02:04:58.049Z,60.67
2018-10-18T02:07:26.338Z,59.70
2018-10-18T02:09:54.665Z,54.03
2018-10-18T02:12:22.950Z,50.10
2018-10-18T02:14:51.273Z,51.27
2018-10-18T02:17:19.574Z,51.37
2018-10-18T02:19:47.879Z,47.37
2018-10-18T02:22:16.158Z,45.53
2018-10-18T02:24:45.545Z,43.57
2018-10-18T02:27:13.833Z,45.80
2018-10-18T02:29:42.126Z,43.90
2018-10-18T02:32:10.436Z,43.17
2018-10-18T02:34:38.705Z,44.27
2018-10-18T02:37:06.985Z,38.73
2018-10-18T02:39:35.347Z,38.77
2018-10-18T02:42:03.632Z,40.03
2018-10-18T02:44:31.894Z,38.97
2018-10-18T02:47:00.190Z,38.20
2018-10-18T02:49:28.447Z,39.60
2018-10-18T02:51:56.732Z,36.83
2018-10-18T02:54:25.095Z,34.50
2018-10-18T02:56:53.369Z,36.83
2018-10-18T02:59:21.633Z,33.87
2018-10-18T03:01:49.933Z,36.00
2018-10-18T03:04:18.203Z,37.07
2018-10-18T03:06:46.481Z,37.73
2018-10-18T03:09:14.774Z,35.67
2018-10-18T03:11:43.038Z,35.27
2018-10-18T03:14:11.311Z,33.47
2018-10-18T03:16:39.607Z,34.70
2018-10-18T03:19:07.874Z,34.80
2018-10-18T03:21:36.146Z,33.53
2018-10-18T03:24:04.791Z,31.97
2018-10-18T03:26:33.046Z,35.70
2018-10-18T03:29:01.312Z,35.57
2018-10-18T03:31:29.602Z,33.83
2018-10-18T03:33:57.897Z,33.90
2018-10-18T03:36:26.203Z,36.43
2018-10-18T03:38:54.762Z,32.43
2018-10-18T03:41:23.463Z,35.30
2018-10-18T03:43:51.723Z,40.87
2018-10-18T03:46:20.062Z,33.80
2018-10-18T03:48:48.362Z,36.20
2018-10-18T03:51:16.633Z,33.97
2018-10-18T03:53:44.934Z,35.27
2018-10-18T03:56:13.260Z,36.97
2018-10-18T03:58:41.526Z,36.80
2018-10-18T04:01:09.805Z,36.67
2018-10-18T04:03:38.075Z,37.83
2018-10-18T04:06:06.412Z,38.67
2018-10-18T04:08:34.646Z,39.00
2018-10-18T04:11:02.906Z,38.90
2018-10-18T04:13:31.175Z,39.43
2018-10-18T04:15:59.678Z,37.57
2018-10-18T04:18:27.989Z,37.43
2018-10-18T04:20:56.210Z,41.57
2018-10-18T04:23:31.994Z,39.63
2018-10-18T04:26:00.866Z,37.30
2018-10-18T04:28:29.373Z,33.23
2018-10-18T04:30:57.750Z,34.10
2018-10-18T04:33:26.058Z,30.70
2018-10-18T04:35:54.350Z,33.70
2018-10-18T04:38:22.650Z,32.53
2018-10-18T04:40:50.901Z,30.63
2018-10-18T04:43:19.174Z,29.40
2018-10-18T04:45:47.462Z,27.07
2018-10-18T04:48:15.916Z,28.60
2018-10-18T04:50:44.118Z,27.57
2018-10-18T04:53:12.650Z,29.13
2018-10-18T04:55:40.967Z,30.50
2018-10-18T04:58:09.241Z,29.03
2018-10-18T05:00:37.510Z,30.47
2018-10-18T05:03:05.777Z,28.80
2018-10-18T05:05:48.366Z,30.03
2018-10-18T05:08:16.656Z,26.87
2018-10-18T05:10:44.918Z,27.80
2018-10-18T05:13:13.285Z,33.17
2018-10-18T05:15:41.503Z,29.83
2018-10-18T05:18:09.770Z,33.20
2018-10-18T05:20:38.137Z,30.67
2018-10-18T05:23:06.802Z,31.70
2018-10-18T05:25:35.200Z,30.60
2018-10-18T05:28:03.996Z,29.97
2018-10-18T05:30:32.337Z,30.80
2018-10-18T05:33:00.831Z,29.43
2018-10-18T05:35:29.138Z,29.00
2018-10-18T05:37:57.454Z,27.83
2018-10-18T05:40:25.726Z,31.47
2018-10-18T05:42:54.116Z,31.67
2018-10-18T05:45:22.378Z,29.00
2018-10-18T05:47:51.657Z,27.90
2018-10-18T05:50:20.102Z,29.37
2018-10-18T05:52:48.377Z,28.20
2018-10-18T05:55:16.685Z,31.10
2018-10-18T05:57:44.948Z,27.13
2018-10-18T06:00:15.995Z,28.13
2018-10-18T06:02:44.583Z,25.37
2018-10-18T06:05:17.784Z,26.60
2018-10-18T06:07:46.421Z,26.93
2018-10-18T06:10:27.659Z,26.73
2018-10-18T06:12:56.053Z,26.90
2018-10-18T06:15:24.562Z,26.57
2018-10-18T06:17:52.874Z,27.07
2018-10-18T06:20:21.853Z,28.17
2018-10-18T06:22:50.176Z,24.20
2018-10-18T06:25:18.567Z,26.63
2018-10-18T06:27:46.765Z,25.43
2018-10-18T06:30:16.372Z,26.17
2018-10-18T06:32:44.869Z,27.77
2018-10-18T06:35:14.504Z,26.90
2018-10-18T06:37:42.781Z,26.27
2018-10-18T06:40:16.018Z,28.00
2018-10-18T06:42:44.314Z,25.50
2018-10-18T06:45:17.031Z,26.30
2018-10-18T06:47:46.569Z,26.97
2018-10-18T06:50:19.094Z,27.90
2018-10-18T06:52:47.421Z,26.00
2018-10-18T06:55:15.777Z,26.37
2018-10-18T06:57:44.550Z,28.17
2018-10-18T07:00:16.967Z,26.00
2018-10-18T07:02:45.498Z,23.83
2018-10-18T07:05:14.865Z,25.97
2018-10-18T07:07:44.790Z,37.60
2018-10-18T07:10:13.166Z,41.80
2018-10-18T07:12:42.870Z,42.73
2018-10-18T07:15:13.201Z,44.40
2018-10-18T07:17:42.409Z,39.00
2018-10-18T07:20:11.073Z,29.03
2018-10-18T07:22:39.891Z,43.67
2018-10-18T07:25:10.760Z,44.40
2018-10-18T07:27:39.601Z,52.40
2018-10-18T07:30:09.452Z,38.97
2018-10-18T07:32:37.710Z,33.53
2018-10-18T07:35:08.687Z,32.93
2018-10-18T07:37:37.014Z,33.00
2018-10-18T07:40:06.474Z,30.67
2018-10-18T07:42:34.769Z,31.53
2018-10-18T07:45:03.130Z,32.17
2018-10-18T07:47:31.444Z,32.27
2018-10-18T07:49:59.682Z,31.10
2018-10-18T07:52:27.941Z,31.17
2018-10-18T07:54:56.110Z,31.93
2018-10-18T07:57:24.426Z,27.30
2018-10-18T07:59:53.807Z,28.20
2018-10-18T08:02:22.046Z,26.63
2018-10-18T08:04:50.338Z,25.33
2018-10-18T08:07:18.674Z,24.77
2018-10-18T08:09:46.967Z,19.27
2018-10-18T08:12:15.256Z,16.50
2018-10-18T08:14:43.610Z,16.13
2018-10-18T08:17:13.132Z,14.50
2018-10-18T08:19:41.369Z,8.60
2018-10-18T08:22:09.707Z,8.60
2018-10-18T08:24:38.014Z,5.47
2018-10-18T08:27:06.333Z,5.07
2018-10-18T08:29:34.682Z,4.10
2018-10-18T08:32:02.986Z,2.53
2018-10-18T08:34:31.313Z,3.13
2018-10-18T08:36:59.656Z,2.67
2018-10-18T08:39:27.893Z,3.17
2018-10-18T08:41:57.279Z,4.20
2018-10-18T08:44:25.916Z,5.10
2018-10-18T08:46:54.154Z,4.00
2018-10-18T08:49:22.452Z,5.80
2018-10-18T08:51:50.751Z,5.10
2018-10-18T08:54:20.074Z,6.20
2018-10-18T08:56:48.498Z,5.50
2018-10-18T08:59:16.840Z,5.97
2018-10-18T09:01:45.134Z,6.13
2018-10-18T09:04:13.438Z,7.00
2018-10-18T09:06:41.780Z,6.10
2018-10-18T09:09:10.340Z,6.10
2018-10-18T09:11:38.696Z,6.10
2018-10-18T09:14:07.431Z,7.60
2018-10-18T09:16:36.873Z,5.40
2018-10-18T09:19:05.642Z,6.17
2018-10-18T09:21:35.238Z,7.20
2018-10-18T09:24:03.578Z,6.93
2018-10-18T09:26:31.930Z,5.83
2018-10-18T09:29:00.250Z,5.43
2018-10-18T09:31:30.521Z,4.93
2018-10-18T09:33:58.834Z,6.10
2018-10-18T09:36:28.185Z,5.10
2018-10-18T09:38:56.503Z,4.70
2018-10-18T09:41:24.802Z,5.07
2018-10-18T09:43:58.370Z,4.00
2018-10-18T09:46:26.902Z,4.90
2018-10-18T09:48:55.357Z,4.23
2018-10-18T09:51:23.597Z,4.03
2018-10-18T09:53:51.873Z,4.00
2018-10-18T09:56:20.239Z,4.17
2018-10-18T09:58:48.530Z,3.27
2018-10-18T10:01:22.194Z,3.37
2018-10-18T10:03:50.486Z,4.87
2018-10-18T10:06:18.773Z,3.20
2018-10-18T10:08:47.061Z,3.30
2018-10-18T10:11:15.374Z,2.20
2018-10-18T10:13:43.759Z,2.70
2018-10-18T10:16:11.962Z,2.17
2018-10-18T10:18:41.338Z,2.23
2018-10-18T10:21:09.662Z,2.10
2018-10-18T10:23:37.975Z,2.40
2018-10-18T10:26:06.278Z,2.33
2018-10-18T10:28:34.607Z,3.20
2018-10-18T10:31:03.016Z,2.47
2018-10-18T10:33:31.259Z,2.60
2018-10-18T10:35:59.570Z,3.00
2018-10-18T10:38:27.857Z,2.50
2018-10-18T10:40:56.197Z,3.93
2018-10-18T10:43:24.533Z,4.07
2018-10-18T10:45:52.956Z,3.00
2018-10-18T10:48:21.224Z,2.60
2018-10-18T10:50:49.491Z,2.40
2018-10-18T10:53:17.790Z,2.27
2018-10-18T10:55:46.087Z,2.20
2018-10-18T10:58:14.472Z,2.60
2018-10-18T11:01:16.767Z,2.73
2018-10-18T11:03:46.329Z,2.47
2018-10-18T11:06:14.867Z,2.10
2018-10-18T11:08:44.238Z,2.10
2018-10-18T11:11:13.467Z,2.77
2018-10-18T11:13:41.765Z,2.30
2018-10-18T11:16:10.108Z,2.40
2018-10-18T11:18:39.011Z,1.80
2018-10-18T11:21:08.435Z,1.93
2018-10-18T11:23:37.698Z,1.90
2018-10-18T11:26:06.101Z,2.20
2018-10-18T11:28:34.354Z,2.80
2018-10-18T11:31:02.678Z,1.70
2018-10-18T11:33:31.061Z,1.87
2018-10-18T11:35:59.590Z,2.17
2018-10-18T11:38:27.940Z,2.40
2018-10-18T11:40:56.254Z,2.97
2018-10-18T11:43:24.575Z,2.33
2018-10-18T11:45:52.882Z,2.40
2018-10-18T11:48:21.231Z,1.43
2018-10-18T11:50:49.511Z,1.50
2018-10-18T11:53:17.791Z,1.60
2018-10-18T11:55:46.126Z,2.30
2018-10-18T11:58:14.666Z,1.60
2018-10-18T12:00:42.966Z,1.93
2018-10-18T12:03:11.366Z,2.23
2018-10-18T12:05:40.010Z,2.00
2018-10-18T12:08:08.342Z,1.80
2018-10-18T12:10:36.675Z,2.13
2018-10-18T12:13:05.003Z,2.23
2018-10-18T12:15:33.289Z,1.90
2018-10-18T12:18:01.611Z,2.20
2018-10-18T12:20:29.891Z,1.97
2018-10-18T12:22:58.292Z,1.90
2018-10-18T12:25:26.545Z,2.50
2018-10-18T12:27:54.833Z,1.70
2018-10-18T12:30:23.134Z,1.90
2018-10-18T12:32:51.418Z,2.30
2018-10-18T12:35:19.730Z,2.47
2018-10-18T12:37:48.031Z,2.00
2018-10-18T12:40:16.396Z,1.77
2018-10-18T12:42:45.610Z,2.07
2018-10-18T12:45:14.078Z,2.20
2018-10-18T12:47:42.405Z,2.77
2018-10-18T12:50:11.719Z,5.13
2018-10-18T12:52:40.003Z,379.90
2018-10-18T12:55:08.306Z,90.83
2018-10-18T12:57:36.589Z,7.77
2018-10-18T13:00:05.761Z,4.40
2018-10-18T13:02:34.068Z,5.30
2018-10-18T13:05:02.327Z,2.23
2018-10-18T13:07:30.665Z,1.90
2018-10-18T13:09:58.953Z,2.70
2018-10-18T13:12:27.559Z,3.40
2018-10-18T13:14:55.722Z,2.03
2018-10-18T13:17:24.006Z,3.17
2018-10-18T13:19:52.348Z,2.50
2018-10-18T13:22:20.623Z,1.80
2018-10-18T13:24:48.913Z,1.47
2018-10-18T13:27:17.188Z,1.97
2018-10-18T13:29:45.479Z,2.60
2018-10-18T13:32:14.792Z,1.93
2018-10-18T13:34:43.342Z,1.70
2018-10-18T13:37:11.714Z,2.00
2018-10-18T13:39:40.018Z,1.70
2018-10-18T13:42:08.380Z,3.03
2018-10-18T13:44:37.753Z,2.07
2018-10-18T13:47:06.178Z,1.37
2018-10-18T13:49:34.490Z,1.47
2018-10-18T13:52:02.782Z,1.77
2018-10-18T13:54:31.065Z,1.50
2018-10-18T13:56:59.370Z,1.80
2018-10-18T13:59:38.991Z,1.47
2018-10-18T14:02:08.470Z,1.30
2018-10-18T14:04:36.645Z,1.20
2018-10-18T14:07:04.950Z,1.10
2018-10-18T14:09:33.234Z,1.40
2018-10-18T14:12:01.525Z,1.73
2018-10-18T14:14:29.821Z,1.30
2018-10-18T14:16:58.184Z,2.50
2018-10-18T14:19:26.381Z,1.60
2018-10-18T14:21:54.705Z,1.13
2018-10-18T14:24:22.990Z,1.10
2018-10-18T14:26:51.305Z,1.43
2018-10-18T14:29:20.884Z,1.97
2018-10-18T14:31:49.144Z,1.50
2018-10-18T14:34:17.469Z,1.73
2018-10-18T14:36:45.750Z,1.20
2018-10-18T14:39:14.031Z,1.17
2018-10-18T14:41:42.342Z,1.33
2018-10-18T14:44:10.677Z,1.70
2018-10-18T14:46:38.921Z,0.90
2018-10-18T14:49:07.230Z,1.00
2018-10-18T14:51:35.694Z,1.60
2018-10-18T14:54:03.993Z,1.33
2018-10-18T14:56:32.290Z,1.33
2018-10-18T14:59:00.621Z,1.23
2018-10-18T15:01:29.213Z,1.97
2018-10-18T15:03:58.598Z,1.17
2018-10-18T15:06:30.070Z,1.13
2018-10-18T15:08:58.374Z,1.30
2018-10-18T15:11:26.661Z,1.27
2018-10-18T15:13:55.086Z,1.17
2018-10-18T15:16:23.370Z,1.33
2018-10-18T15:18:51.722Z,1.50
2018-10-18T15:21:19.995Z,1.20
2018-10-18T15:23:48.298Z,1.77
2018-10-18T15:26:16.666Z,1.60
2018-10-18T15:28:44.873Z,1.80
2018-10-18T15:31:13.181Z,1.40
2018-10-18T15:33:41.505Z,2.67
2018-10-18T15:36:10.819Z,1.20
2018-10-18T15:38:39.358Z,1.20
2018-10-18T15:41:07.598Z,1.77
2018-10-18T15:43:35.818Z,1.30
2018-10-18T15:46:04.162Z,0.87
2018-10-18T15:48:32.451Z,1.60
2018-10-18T15:51:00.768Z,1.20
2018-10-18T15:53:29.162Z,1.60
2018-10-18T15:55:57.398Z,1.60
2018-10-18T15:58:25.695Z,1.50
2018-10-18T16:00:53.996Z,1.30
2018-10-18T16:03:22.288Z,1.50
2018-10-18T16:05:50.607Z,1.47
2018-10-18T16:08:18.893Z,2.00
2018-10-18T16:10:47.225Z,1.37
2018-10-18T16:13:15.549Z,1.93
2018-10-18T16:15:43.876Z,1.80
2018-10-18T16:18:12.202Z,1.73
2018-10-18T16:20:40.498Z,2.50
2018-10-18T16:23:08.880Z,1.83
2018-10-18T16:25:37.230Z,2.20
2018-10-18T16:28:05.551Z,2.40
2018-10-18T16:30:33.894Z,2.70
2018-10-18T16:33:02.190Z,2.40
2018-10-18T16:35:30.494Z,2.70
2018-10-18T16:37:58.796Z,2.43
2018-10-18T16:40:27.934Z,2.80
2018-10-18T16:42:56.283Z,2.27
2018-10-18T16:45:24.654Z,2.43
2018-10-18T16:47:53.068Z,2.03
2018-10-18T16:50:21.334Z,2.13
2018-10-18T16:52:49.626Z,1.90
2018-10-18T16:55:18.170Z,2.10
2018-10-18T16:57:46.486Z,3.00
2018-10-18T17:00:14.840Z,2.67
2018-10-18T17:02:43.071Z,1.47
2018-10-18T17:05:11.363Z,2.30
2018-10-18T17:07:39.765Z,1.27
2018-10-18T17:10:08.133Z,1.20
2018-10-18T17:12:36.418Z,1.63
2018-10-18T17:15:05.719Z,1.67
2018-10-18T17:17:34.056Z,1.63
2018-10-18T17:20:02.362Z,1.50
2018-10-18T17:22:30.645Z,1.10
2018-10-18T17:24:59.334Z,1.37
2018-10-18T17:27:27.728Z,2.37
2018-10-18T17:29:55.923Z,1.50
2018-10-18T17:32:24.241Z,1.57
2018-10-18T17:34:52.537Z,1.70
2018-10-18T17:37:20.894Z,1.83
2018-10-18T17:39:49.286Z,1.73
2018-10-18T17:42:17.660Z,1.70
2018-10-18T17:44:45.915Z,1.77
2018-10-18T17:47:14.259Z,1.80
2018-10-18T17:49:42.522Z,1.40
2018-10-18T17:52:10.836Z,1.50
2018-10-18T17:54:39.143Z,1.40
2018-10-18T17:57:07.466Z,1.60
2018-10-18T17:59:35.768Z,1.57
2018-10-18T18:02:04.117Z,1.60
2018-10-18T18:04:33.447Z,1.23
2018-10-18T18:07:01.904Z,2.00
2018-10-18T18:09:30.115Z,1.90
2018-10-18T18:11:58.418Z,2.00
2018-10-18T18:14:27.106Z,1.70
2018-10-18T18:16:56.575Z,2.00
2018-10-18T18:19:24.879Z,1.90
2018-10-18T18:21:55.212Z,2.17
2018-10-18T18:24:23.952Z,1.60
2018-10-18T18:26:52.288Z,2.52
2018-10-18T18:29:20.570Z,2.20
2018-10-18T18:31:48.892Z,2.00
2018-10-18T18:34:17.162Z,2.63
2018-10-18T18:36:45.450Z,2.40
2018-10-18T18:39:13.732Z,2.30
2018-10-18T18:41:42.030Z,2.27
2018-10-18T18:44:10.306Z,2.80
2018-10-18T18:46:38.736Z,4.10
2018-10-18T18:49:07.196Z,3.67
2018-10-18T18:51:35.769Z,3.03
2018-10-18T18:54:04.011Z,2.57
2018-10-18T18:56:32.313Z,2.60
2018-10-18T18:59:00.586Z,3.50
2018-10-18T19:01:28.878Z,2.80
2018-10-18T19:03:57.163Z,2.67
2018-10-18T19:06:25.449Z,2.33
2018-10-18T19:08:53.777Z,2.07
2018-10-18T19:11:22.022Z,3.67
2018-10-18T19:13:50.323Z,2.47
2018-10-18T19:16:18.598Z,4.17
2018-10-18T19:18:46.862Z,3.00
2018-10-18T19:21:15.150Z,2.90
2018-10-18T19:23:43.438Z,3.60
2018-10-18T19:26:11.861Z,3.90
2018-10-18T19:28:40.114Z,4.77
2018-10-18T19:31:08.370Z,4.77
2018-10-18T19:33:36.651Z,4.93
2018-10-18T19:36:05.962Z,5.40
2018-10-18T19:38:34.385Z,4.73
2018-10-18T19:41:02.617Z,5.93
2018-10-18T19:43:30.894Z,5.67
2018-10-18T19:45:59.216Z,5.10
2018-10-18T19:48:27.599Z,5.10
2018-10-18T19:50:56.901Z,4.87
2018-10-18T19:53:25.164Z,4.40
2018-10-18T19:55:53.490Z,3.97
2018-10-18T19:58:22.100Z,5.80
2018-10-18T20:00:50.745Z,6.80
2018-10-18T20:03:19.111Z,3.30
2018-10-18T20:05:47.383Z,3.50
2018-10-18T20:08:15.747Z,2.70
2018-10-18T20:10:43.974Z,3.77
2018-10-18T20:13:12.250Z,3.37
2018-10-18T20:15:40.526Z,3.70
2018-10-18T20:18:08.873Z,3.77
2018-10-18T20:20:37.261Z,4.63
2018-10-18T20:23:05.558Z,3.70
2018-10-18T20:25:33.888Z,4.60
2018-10-18T20:28:02.126Z,4.10
2018-10-18T20:30:30.574Z,3.40
2018-10-18T20:32:59.924Z,3.97
2018-10-18T20:35:28.199Z,4.03
2018-10-18T20:37:56.572Z,5.20
2018-10-18T20:40:24.895Z,4.57
2018-10-18T20:42:53.169Z,3.87
2018-10-18T20:45:29.522Z,4.73
2018-10-18T20:47:58.317Z,4.40
2018-10-18T20:50:26.470Z,5.57
2018-10-18T20:52:54.802Z,5.17
2018-10-18T20:55:23.361Z,5.23
2018-10-18T20:57:51.647Z,5.90
2018-10-18T21:00:19.926Z,5.00
2018-10-18T21:02:48.213Z,4.10
2018-10-18T21:05:16.505Z,5.67
2018-10-18T21:07:44.798Z,5.70
2018-10-18T21:11:37.499Z,5.67
2018-10-18T21:14:06.518Z,4.13
2018-10-18T21:16:34.818Z,5.30
2018-10-18T21:19:03.483Z,5.07
2018-10-18T21:21:31.982Z,4.57
2018-10-18T21:24:00.278Z,4.37
2018-10-18T21:26:28.570Z,5.80
2018-10-18T21:28:56.883Z,4.70
2018-10-18T21:31:25.138Z,5.40
2018-10-18T21:33:53.643Z,4.33
2018-10-18T21:36:21.925Z,5.30
2018-10-18T21:38:50.194Z,5.23
2018-10-18T21:41:18.477Z,4.63
2018-10-18T21:43:46.782Z,6.30
2018-10-18T21:46:15.112Z,4.80
2018-10-18T21:48:43.602Z,5.00
2018-10-18T21:51:11.890Z,4.93
2018-10-18T21:53:40.154Z,4.90
2018-10-18T21:56:08.447Z,4.87
2018-10-18T21:58:36.731Z,4.93
2018-10-18T22:01:06.118Z,4.43
2018-10-18T22:03:35.486Z,5.20
2018-10-18T22:06:03.788Z,7.60
2018-10-18T22:08:33.062Z,4.00
2018-10-18T22:11:01.372Z,5.23
2018-10-18T22:13:29.656Z,5.90
2018-10-18T22:15:57.947Z,4.20
2018-10-18T22:18:26.219Z,6.30
2018-10-18T22:20:54.504Z,5.80
2018-10-18T22:23:22.827Z,5.33
2018-10-18T22:25:51.111Z,5.40
2018-10-18T22:28:19.429Z,5.50
2018-10-18T22:30:47.697Z,5.37
2018-10-18T22:33:16.033Z,4.63
2018-10-18T22:35:44.427Z,6.00
2018-10-18T22:38:12.693Z,4.53
2018-10-18T22:40:40.966Z,4.97
2018-10-18T22:43:09.326Z,5.87
2018-10-18T22:45:37.598Z,5.50
2018-10-18T22:48:06.006Z,6.37
2018-10-18T22:50:34.305Z,6.00
2018-10-18T22:53:02.632Z,5.90
2018-10-18T22:55:30.859Z,6.53
2018-10-18T22:57:59.152Z,6.47
2018-10-18T23:00:27.436Z,6.13
2018-10-18T23:02:55.761Z,5.50
2018-10-18T23:05:24.018Z,5.37
2018-10-18T23:07:52.378Z,5.63
2018-10-18T23:10:20.667Z,5.60
2018-10-18T23:12:48.927Z,5.97
2018-10-18T23:15:17.239Z,6.07
2018-10-18T23:17:45.494Z,5.00
2018-10-18T23:20:13.758Z,4.93
2018-10-18T23:22:42.033Z,5.47
2018-10-18T23:25:10.322Z,5.77
2018-10-18T23:27:38.598Z,7.73
2018-10-18T23:30:08.186Z,6.60
2018-10-18T23:32:36.525Z,4.90
2018-10-18T23:35:05.216Z,6.30
2018-10-18T23:37:33.489Z,6.87
2018-10-18T23:40:01.779Z,6.40
2018-10-18T23:42:30.062Z,5.43
2018-10-18T23:44:58.355Z,6.20
2018-10-18T23:47:26.626Z,5.10
2018-10-18T23:49:54.907Z,5.37
2018-10-18T23:52:23.166Z,6.20
2018-10-18T23:54:51.471Z,5.50
2018-10-18T23:57:19.795Z,8.17
2018-10-18T23:59:48.002Z,5.50
